createdAt,value
2022-11-01T00:03:00.133Z,88.96
2022-11-01T00:06:03.880Z,89.13
2022-11-01T00:09:07.377Z,89.66
2022-11-01T00:12:09.903Z,89.49
2022-11-01T00:15:13.236Z,88.72
2022-11-01T00:18:16.552Z,88.78
2022-11-01T00:21:19.515Z,88.80
2022-11-01T00:24:22.763Z,89.04
2022-11-01T00:27:26.152Z,89.16
2022-11-01T00:30:30.139Z,89.63
2022-11-01T00:33:33.601Z,89.00
2022-11-01T00:36:36.428Z,89.57
2022-11-01T00:39:38.888Z,89.03
2022-11-01T00:42:41.318Z,89.39
2022-11-01T00:45:45.301Z,89.51
2022-11-01T00:48:48.690Z,89.41
2022-11-01T00:51:52.236Z,89.26
2022-11-01T00:54:54.706Z,89.34
2022-11-01T00:57:57.237Z,89.52
2022-11-01T01:01:00.746Z,89.36
2022-11-01T01:04:04.332Z,89.33
2022-11-01T01:07:07.058Z,89.43
2022-11-01T01:10:09.970Z,89.58
2022-11-01T01:13:13.464Z,89.20
2022-11-01T01:16:16.641Z,89.31
2022-11-01T01:19:19.329Z,89.91
2022-11-01T01:22:21.893Z,89.78
2022-11-01T01:25:25.433Z,90.27
2022-11-01T01:28:28.724Z,89.92
2022-11-01T01:31:31.284Z,89.86
2022-11-01T01:34:33.765Z,89.66
2022-11-01T01:37:36.520Z,89.59
2022-11-01T01:40:39.208Z,89.59
2022-11-01T01:43:43.969Z,89.66
2022-11-01T01:46:47.285Z,89.57
2022-11-01T01:53:06.993Z,88.74
2022-11-01T01:56:18.283Z,89.29
2022-11-01T01:59:21.146Z,89.15
2022-11-01T02:02:24.660Z,88.79
2022-11-01T02:05:54.946Z,89.27
2022-11-01T02:09:00.017Z,89.56
2022-11-01T02:12:04.352Z,89.45
2022-11-01T02:15:13.565Z,89.74
2022-11-01T02:18:28.202Z,89.36
2022-11-01T02:21:46.469Z,89.83
2022-11-01T02:25:13.934Z,89.47
2022-11-01T02:28:41.175Z,89.05
2022-11-01T02:32:15.145Z,89.29
2022-11-01T02:35:27.216Z,90.00
2022-11-01T02:38:48.887Z,90.01
2022-11-01T02:42:02.259Z,89.54
2022-11-01T02:45:27.840Z,90.04
2022-11-01T02:48:32.628Z,89.75
2022-11-01T02:51:36.902Z,89.53
2022-11-01T02:54:45.080Z,89.76
2022-11-01T02:57:49.423Z,89.96
2022-11-01T03:00:52.516Z,89.50
2022-11-01T03:03:57.642Z,89.41
2022-11-01T03:07:05.451Z,89.54
2022-11-01T03:10:08.874Z,89.65
2022-11-01T03:13:36.245Z,89.04
2022-11-01T03:17:02.932Z,89.15
2022-11-01T03:20:15.826Z,89.11
2022-11-01T03:23:28.788Z,88.70
2022-11-01T03:26:35.291Z,89.15
2022-11-01T03:29:39.855Z,89.59
2022-11-01T03:32:53.566Z,89.66
2022-11-01T03:36:10.407Z,90.15
2022-11-01T03:39:46.007Z,89.94
2022-11-01T03:42:52.036Z,90.08
2022-11-01T03:45:55.551Z,89.79
2022-11-01T03:48:58.122Z,89.87
2022-11-01T03:52:00.634Z,89.57
2022-11-01T03:55:18.105Z,89.85
2022-11-01T03:58:20.693Z,89.68
2022-11-01T04:01:23.992Z,89.61
2022-11-01T04:04:30.457Z,89.41
2022-11-01T04:07:32.912Z,89.61
2022-11-01T04:10:36.260Z,89.79
2022-11-01T04:13:39.509Z,89.47
2022-11-01T04:17:02.584Z,89.69
2022-11-01T04:20:23.940Z,89.61
2022-11-01T04:23:26.908Z,89.66
2022-11-01T04:26:29.956Z,89.43
2022-11-01T04:29:32.494Z,89.26
2022-11-01T04:32:35.958Z,89.18
2022-11-01T04:35:39.345Z,88.98
2022-11-01T04:38:43.019Z,88.47
2022-11-01T04:41:46.565Z,88.66
2022-11-01T04:44:49.532Z,88.60
2022-11-01T04:48:03.712Z,88.88
2022-11-01T04:51:08.374Z,88.76
2022-11-01T04:54:10.906Z,89.11
2022-11-01T04:57:25.577Z,88.68
2022-11-01T05:00:29.099Z,89.26
2022-11-01T05:03:33.136Z,89.07
2022-11-01T05:06:35.592Z,89.18
2022-11-01T05:09:38.975Z,88.79
2022-11-01T05:12:42.085Z,88.82
2022-11-01T05:16:06.299Z,88.83
2022-11-01T05:19:08.527Z,89.02
2022-11-01T05:22:11.670Z,89.11
2022-11-01T05:25:14.958Z,89.68
2022-11-01T05:28:17.544Z,89.66
2022-11-01T05:31:21.048Z,89.95
2022-11-01T05:34:23.686Z,89.77
2022-11-01T05:37:28.181Z,89.32
2022-11-01T05:40:31.259Z,89.26
2022-11-01T05:43:37.021Z,89.29
2022-11-01T05:46:39.586Z,89.00
2022-11-01T05:49:42.299Z,89.13
2022-11-01T05:52:45.701Z,89.29
2022-11-01T05:55:49.124Z,89.49
2022-11-01T05:58:52.579Z,89.71
2022-11-01T06:01:55.270Z,89.82
2022-11-01T06:05:02.655Z,89.66
2022-11-01T06:08:06.714Z,89.74
2022-11-01T06:11:11.452Z,89.89
2022-11-01T06:14:14.629Z,89.42
2022-11-01T06:17:17.140Z,89.72
2022-11-01T06:20:20.656Z,89.85
2022-11-01T06:23:24.117Z,89.28
2022-11-01T06:26:28.100Z,88.88
2022-11-01T06:29:30.785Z,88.71
2022-11-01T06:32:34.085Z,88.96
2022-11-01T06:35:36.871Z,88.82
2022-11-01T06:38:40.314Z,89.50
2022-11-01T06:41:43.622Z,89.35
2022-11-01T06:44:46.611Z,89.13
2022-11-01T06:47:49.147Z,89.70
2022-11-01T06:50:53.835Z,89.65
2022-11-01T06:53:57.112Z,89.57
2022-11-01T06:57:00.188Z,89.54
2022-11-01T07:00:04.399Z,89.57
2022-11-01T07:03:12.150Z,89.50
2022-11-01T07:06:15.654Z,88.33
2022-11-01T07:09:19.398Z,88.22
2022-11-01T07:12:22.666Z,88.17
2022-11-01T07:15:26.950Z,87.83
2022-11-01T07:18:30.564Z,88.24
2022-11-01T07:21:33.280Z,88.14
2022-11-01T07:24:36.710Z,88.65
2022-11-01T07:27:39.204Z,89.03
2022-11-01T07:30:42.725Z,89.21
2022-11-01T07:33:45.656Z,88.94
2022-11-01T07:36:52.647Z,88.92
2022-11-01T07:39:55.762Z,89.06
2022-11-01T07:43:00.389Z,88.95
2022-11-01T07:46:05.731Z,89.21
2022-11-01T07:49:08.281Z,89.02
2022-11-01T07:52:10.896Z,89.21
2022-11-01T07:55:13.400Z,88.95
2022-11-01T07:58:17.020Z,88.61
2022-11-01T08:01:20.869Z,88.49
2022-11-01T08:04:24.578Z,88.34
2022-11-01T08:07:30.828Z,88.07
2022-11-01T08:10:36.418Z,87.96
2022-11-01T08:13:39.640Z,88.09
2022-11-01T08:16:42.818Z,88.10
2022-11-01T08:19:45.492Z,87.98
2022-11-01T08:22:48.141Z,88.17
2022-11-01T08:25:50.915Z,88.39
2022-11-01T08:28:53.364Z,88.86
2022-11-01T08:31:56.030Z,88.13
2022-11-01T08:34:59.345Z,88.40
2022-11-01T08:38:03.860Z,87.74
2022-11-01T08:41:07.283Z,87.47
2022-11-01T08:44:10.033Z,87.42
2022-11-01T08:47:12.513Z,86.60
2022-11-01T08:50:17.502Z,86.28
2022-11-01T08:53:20.379Z,85.47
2022-11-01T08:56:25.125Z,85.18
2022-11-01T08:59:29.462Z,85.37
2022-11-01T09:02:32.165Z,84.52
2022-11-01T09:05:35.462Z,85.70
2022-11-01T09:08:38.819Z,86.06
2022-11-01T09:11:43.327Z,86.10
2022-11-01T09:14:48.473Z,85.72
2022-11-01T09:17:52.953Z,85.49
2022-11-01T09:20:56.652Z,85.32
2022-11-01T09:23:59.900Z,85.23
2022-11-01T09:27:03.542Z,84.36
2022-11-01T09:30:06.551Z,84.85
2022-11-01T09:33:09.320Z,84.72
2022-11-01T09:36:11.844Z,84.67
2022-11-01T09:39:16.504Z,84.23
2022-11-01T09:42:25.340Z,83.98
2022-11-01T09:45:32.913Z,84.56
2022-11-01T09:48:36.663Z,84.70
2022-11-01T09:51:39.336Z,84.77
2022-11-01T09:54:42.349Z,83.75
2022-11-01T09:58:02.018Z,84.05
2022-11-01T10:01:15.518Z,83.69
2022-11-01T10:04:40.450Z,83.62
2022-11-01T10:08:02.470Z,83.57
2022-11-01T10:11:08.914Z,82.44
2022-11-01T10:14:14.136Z,83.76
2022-11-01T10:17:26.004Z,83.76
2022-11-01T10:20:33.350Z,83.23
2022-11-01T10:23:51.572Z,83.60
2022-11-01T10:27:22.342Z,83.03
2022-11-01T10:30:25.608Z,83.58
2022-11-01T10:34:01.145Z,84.11
2022-11-01T10:37:57.336Z,84.09
2022-11-01T10:41:26.017Z,84.10
2022-11-01T10:44:38.417Z,83.70
2022-11-01T10:47:43.546Z,83.20
2022-11-01T10:50:47.186Z,82.68
2022-11-01T10:53:54.312Z,83.57
2022-11-01T10:57:04.144Z,83.20
2022-11-01T11:00:15.920Z,84.40
2022-11-01T11:03:21.242Z,84.29
2022-11-01T11:06:23.854Z,84.91
2022-11-01T11:09:34.955Z,84.23
2022-11-01T11:12:38.486Z,84.06
2022-11-01T11:15:54.896Z,83.77
2022-11-01T11:19:22.340Z,84.31
2022-11-01T11:22:26.530Z,83.97
2022-11-01T11:25:37.361Z,83.96
2022-11-01T11:28:46.196Z,83.77
2022-11-01T11:31:56.636Z,84.31
2022-11-01T11:35:14.349Z,83.24
2022-11-01T11:38:17.198Z,83.62
2022-11-01T11:41:36.656Z,83.56
2022-11-01T11:44:42.931Z,83.46
2022-11-01T11:47:49.802Z,83.91
2022-11-01T11:51:02.178Z,83.93
2022-11-01T11:54:24.459Z,83.49
2022-11-01T11:57:30.892Z,83.58
2022-11-01T12:00:37.731Z,82.99
2022-11-01T12:03:50.856Z,82.50
2022-11-01T12:06:53.412Z,80.97
2022-11-01T12:10:02.122Z,81.22
2022-11-01T12:13:24.329Z,81.08
2022-11-01T12:19:31.932Z,81.36
2022-11-01T12:22:36.362Z,81.57
2022-11-01T12:25:41.447Z,81.82
2022-11-01T12:29:07.334Z,80.71
2022-11-01T12:32:21.300Z,80.83
2022-11-01T12:35:36.693Z,81.39
2022-11-01T12:38:53.378Z,80.76
2022-11-01T12:42:03.996Z,80.47
2022-11-01T12:45:15.700Z,80.56
2022-11-01T12:48:33.610Z,81.49
2022-11-01T12:51:44.593Z,81.35
2022-11-01T12:55:04.189Z,81.12
2022-11-01T12:58:15.733Z,80.90
2022-11-01T13:01:42.975Z,81.39
2022-11-01T13:05:09.286Z,81.26
2022-11-01T13:08:17.611Z,81.16
2022-11-01T13:11:33.932Z,80.57
2022-11-01T13:14:53.849Z,80.93
2022-11-01T13:18:35.984Z,79.35
2022-11-01T13:21:50.625Z,80.17
2022-11-01T13:25:13.722Z,80.92
2022-11-01T13:28:34.606Z,79.60
2022-11-01T13:32:00.954Z,79.66
2022-11-01T13:35:26.810Z,79.85
2022-11-01T13:38:37.722Z,79.64
2022-11-01T13:41:54.782Z,78.93
2022-11-01T13:45:12.674Z,79.61
2022-11-01T13:48:18.920Z,78.25
2022-11-01T13:51:37.198Z,79.88
2022-11-01T13:54:46.688Z,78.95
2022-11-01T13:57:49.871Z,79.13
2022-11-01T14:00:54.623Z,79.50
2022-11-01T14:04:16.651Z,79.21
2022-11-01T14:07:19.195Z,79.01
2022-11-01T14:10:30.701Z,79.66
2022-11-01T14:13:35.744Z,79.01
2022-11-01T14:16:39.196Z,78.90
2022-11-01T14:19:43.044Z,78.09
2022-11-01T14:22:45.808Z,77.86
2022-11-01T14:25:49.201Z,78.33
2022-11-01T14:28:55.283Z,78.09
2022-11-01T14:31:59.116Z,78.35
2022-11-01T14:35:07.250Z,78.42
2022-11-01T14:38:16.466Z,79.33
2022-11-01T14:41:21.573Z,79.01
2022-11-01T14:44:32.817Z,79.24
2022-11-01T14:47:39.880Z,78.64
2022-11-01T14:50:50.667Z,79.15
2022-11-01T14:54:13.609Z,79.44
2022-11-01T14:57:25.958Z,79.09
2022-11-01T15:00:32.054Z,80.27
2022-11-01T15:03:35.243Z,80.67
2022-11-01T15:06:43.338Z,80.66
2022-11-01T15:09:57.243Z,79.67
2022-11-01T15:13:04.408Z,80.18
2022-11-01T15:16:23.895Z,79.82
2022-11-01T15:19:33.277Z,79.50
2022-11-01T15:22:36.869Z,79.95
2022-11-01T15:25:40.925Z,80.39
2022-11-01T15:29:01.346Z,80.75
2022-11-01T15:32:04.253Z,80.43
2022-11-01T15:35:21.113Z,80.00
2022-11-01T15:38:23.866Z,80.24
2022-11-01T15:41:35.234Z,80.64
2022-11-01T15:44:42.015Z,81.85
2022-11-01T15:47:49.523Z,81.63
2022-11-01T15:50:59.551Z,81.93
2022-11-01T15:54:08.253Z,81.87
2022-11-01T15:57:23.072Z,81.52
2022-11-01T16:00:45.375Z,80.88
2022-11-01T16:04:01.129Z,81.41
2022-11-01T16:07:07.151Z,82.01
2022-11-01T16:10:27.408Z,81.12
2022-11-01T16:13:32.250Z,81.50
2022-11-01T16:17:07.949Z,82.16
2022-11-01T16:20:34.491Z,81.88
2022-11-01T16:23:37.268Z,81.67
2022-11-01T16:26:52.942Z,82.00
2022-11-01T16:29:56.346Z,81.91
2022-11-01T16:33:11.826Z,82.05
2022-11-01T16:36:20.619Z,81.67
2022-11-01T16:39:28.620Z,81.65
2022-11-01T16:42:33.112Z,82.32
2022-11-01T16:45:37.832Z,81.86
2022-11-01T16:48:52.211Z,80.91
2022-11-01T16:51:58.460Z,81.12
2022-11-01T16:55:01.278Z,80.83
2022-11-01T16:58:04.405Z,80.58
2022-11-01T17:01:23.607Z,79.90
2022-11-01T17:04:28.487Z,80.73
2022-11-01T17:07:32.072Z,79.71
2022-11-01T17:10:35.936Z,80.02
2022-11-01T17:13:41.258Z,80.04
2022-11-01T17:16:47.694Z,80.19
2022-11-01T17:20:02.126Z,80.36
2022-11-01T17:23:14.460Z,79.90
2022-11-01T17:26:19.498Z,80.33
2022-11-01T17:29:22.217Z,80.03
2022-11-01T17:32:24.988Z,80.93
2022-11-01T17:35:28.627Z,81.20
2022-11-01T17:38:34.802Z,80.42
2022-11-01T17:41:37.887Z,80.71
2022-11-01T17:44:41.451Z,80.46
2022-11-01T17:47:44.286Z,80.86
2022-11-01T17:50:48.097Z,79.74
2022-11-01T17:53:56.300Z,80.48
2022-11-01T17:56:59.982Z,80.92
2022-11-01T18:00:04.933Z,81.51
2022-11-01T18:03:15.390Z,81.30
2022-11-01T18:06:19.207Z,81.19
2022-11-01T18:09:24.704Z,80.47
2022-11-01T18:12:34.585Z,80.55
2022-11-01T18:15:46.908Z,80.51
2022-11-01T18:19:03.044Z,80.05
2022-11-01T18:22:16.093Z,79.07
2022-11-01T18:25:47.882Z,79.89
2022-11-01T18:28:53.969Z,80.20
2022-11-01T18:32:05.232Z,80.17
2022-11-01T18:35:31.720Z,80.46
2022-11-01T18:38:41.167Z,80.06
2022-11-01T18:41:46.205Z,79.61
2022-11-01T18:44:49.505Z,80.23
2022-11-01T18:48:02.911Z,79.52
2022-11-01T18:51:21.000Z,79.84
2022-11-01T18:54:30.487Z,80.09
2022-11-01T18:57:34.864Z,80.16
2022-11-01T19:00:38.964Z,80.35
2022-11-01T19:03:42.619Z,80.15
2022-11-01T19:06:46.166Z,79.90
2022-11-01T19:10:02.856Z,80.50
2022-11-01T19:13:12.860Z,80.54
2022-11-01T19:16:18.292Z,80.84
2022-11-01T19:19:22.216Z,79.72
2022-11-01T19:22:38.982Z,79.67
2022-11-01T19:25:46.237Z,79.71
2022-11-01T19:28:52.435Z,79.54
2022-11-01T19:32:04.723Z,79.81
2022-11-01T19:35:21.769Z,79.73
2022-11-01T19:38:25.821Z,79.82
2022-11-01T19:41:33.382Z,78.78
2022-11-01T19:44:36.216Z,79.83
2022-11-01T19:47:41.202Z,79.29
2022-11-01T19:50:45.053Z,80.12
2022-11-01T19:53:50.198Z,80.03
2022-11-01T19:56:59.286Z,79.66
2022-11-01T20:00:22.350Z,80.14
2022-11-01T20:03:39.641Z,79.97
2022-11-01T20:07:10.203Z,79.82
2022-11-01T20:10:15.138Z,79.83
2022-11-01T20:13:18.729Z,80.12
2022-11-01T20:16:21.499Z,79.41
2022-11-01T20:19:25.251Z,80.32
2022-11-01T20:22:29.763Z,80.00
2022-11-01T20:25:38.188Z,79.88
2022-11-01T20:28:40.924Z,79.91
2022-11-01T20:31:44.935Z,80.08
2022-11-01T20:34:48.666Z,79.10
2022-11-01T20:37:51.496Z,79.45
2022-11-01T20:40:54.697Z,79.01
2022-11-01T20:43:57.423Z,79.90
2022-11-01T20:47:00.253Z,79.18
2022-11-01T20:50:05.987Z,79.33
2022-11-01T20:53:10.101Z,79.09
2022-11-01T20:56:14.381Z,79.83
2022-11-01T20:59:20.391Z,79.40
2022-11-01T21:02:25.526Z,79.51
2022-11-01T21:05:31.033Z,80.16
2022-11-01T21:08:35.697Z,79.80
2022-11-01T21:11:46.009Z,79.65
2022-11-01T21:14:49.798Z,79.43
2022-11-01T21:18:07.610Z,79.56
2022-11-01T21:21:16.249Z,78.97
2022-11-01T21:24:31.086Z,80.06
2022-11-01T21:27:34.744Z,80.75
2022-11-01T21:30:38.260Z,79.98
2022-11-01T21:33:49.048Z,80.00
2022-11-01T21:36:52.597Z,80.41
2022-11-01T21:40:04.826Z,80.15
2022-11-01T21:43:25.067Z,80.33
2022-11-01T21:46:35.174Z,80.63
2022-11-01T21:49:38.228Z,81.25
2022-11-01T21:52:48.316Z,81.27
2022-11-01T21:55:51.781Z,81.18
2022-11-01T21:58:54.546Z,82.03
2022-11-01T22:01:57.911Z,81.22
2022-11-01T22:05:00.947Z,81.40
2022-11-01T22:08:03.653Z,81.52
2022-11-01T22:11:06.750Z,80.88
2022-11-01T22:14:10.727Z,80.99
2022-11-01T22:17:13.276Z,80.68
2022-11-01T22:20:16.808Z,81.06
2022-11-01T22:23:19.790Z,81.51
2022-11-01T22:26:22.867Z,81.37
2022-11-01T22:29:26.386Z,81.34
2022-11-01T22:32:32.333Z,81.58
2022-11-01T22:35:34.806Z,81.52
2022-11-01T22:38:40.282Z,82.03
2022-11-01T22:41:43.755Z,81.46
2022-11-01T22:44:49.916Z,81.96
2022-11-01T22:47:53.346Z,82.40
2022-11-01T22:50:55.750Z,81.78
2022-11-01T22:53:59.841Z,81.87
2022-11-01T22:57:08.194Z,82.14
2022-11-01T23:00:41.992Z,82.80
2022-11-01T23:03:45.444Z,82.17
2022-11-01T23:06:50.419Z,82.52
2022-11-01T23:09:55.336Z,82.43
2022-11-01T23:13:31.848Z,83.02
2022-11-01T23:16:40.864Z,83.83
2022-11-01T23:19:44.048Z,84.31
2022-11-01T23:22:46.724Z,84.24
2022-11-01T23:25:50.995Z,84.06
2022-11-01T23:28:57.264Z,82.96
2022-11-01T23:32:00.979Z,82.95
2022-11-01T23:35:17.788Z,83.25
2022-11-01T23:38:34.309Z,83.84
2022-11-01T23:41:39.447Z,83.35
2022-11-01T23:44:42.493Z,83.53
2022-11-01T23:47:45.111Z,83.73
2022-11-01T23:50:49.733Z,83.76
2022-11-01T23:53:54.693Z,83.78
2022-11-01T23:56:57.963Z,84.55
